Pine Lawn, Missouri
Current Conditions -  °F | °C
As of 7:24 AM on Saturday 25 Oct 2014 (Local Time) from KSTL Reporting Station
Haze Haze  
Wind Chill: 59°   Ceiling: Unl
Heat Index: 59°   Visibility: 4mi
Dew Point: 55°   Wind: 5mph
Humidity: 88%   Direction: 270°W
Pressure: 30.02"   Gusts: NA
Location:  38.694°N, 90.256°W
Report Text: KSTL 251224Z 27004KT 4SM BR FEW250 15/13 A3002 RMK AO2
Loading
Personal Weather Stations






























Interactive Weather Map
Tropical Storm Tracking
New forecast layout! Learn more

10-Day Weather Forecast

Advertisements
Track Severe Weather on mobile